Flight Track Log - Related Links

Times and Time Zones

All times are in EDT time to prevent confusion due to time zone crossing. See the ASH3732 flight status page for this flight to view local times or setup timezone preferences in your user account.

Time Position Orientation Groundspeed Altitude Reporting Facility
EDT Latitude Longitude Course Direction KTS MPH feet Rate Location/Type
Sun 08:32:55 AM 38.9000 -77.4667 288° West 203 234 2,100  Level Potomac TRACON
Sun 08:33:55 AM 38.8500 -77.5167 218° Southwest 238 274 4,300 2,393 Climbing Potomac TRACON
Sun 08:35:48 AM 38.8119 -77.6831 254° West 269 310 9,000 2,185 Climbing Washington Center
Sun 08:36:48 AM 38.8225 -77.7844 278° West 276 318 10,600 1,736 Climbing Washington Center
Sun 08:37:49 AM 38.8308 -77.9019 275° West 308 354 12,500 1,918 Climbing Washington Center
Sun 08:38:00 AM 38.8494 -78.1975 288° West  Level FlightAware Approximate
Sun 08:38:50 AM 38.8389 -78.0194 275° West 330 380 14,500  Level Washington Center
Sun 08:39:48 AM 38.8489 -78.1400 276° West 340 391 16,300 1,700 Climbing Washington Center
Sun 08:40:50 AM 38.8525 -78.2625 272° West 346 398 17,900 1,450 Climbing Washington Center
Sun 08:41:48 AM 38.8517 -78.3933 270° West 352 405 19,200 1,475 Climbing Washington Center
Sun 08:42:48 AM 38.8506 -78.5239 269° West 358 412 20,800 1,200 Climbing Washington Center
Sun 08:43:48 AM 38.8494 -78.6544 269° West 365 420 21,600 893 Climbing Washington Center
Sun 08:44:49 AM 38.8458 -78.7956 268° West 382 440 22,600 1,131 Climbing Washington Center
Sun 08:45:50 AM 38.8439 -78.9367 269° West 394 453 23,900 1,289 Climbing Washington Center
Sun 08:46:50 AM 38.8419 -79.0778 269° West 399 459 25,200 1,150 Climbing Washington Center
Sun 08:47:50 AM 38.8400 -79.2217 269° West 404 465 26,200 1,017 Climbing Washington Center
Sun 08:48:48 AM 38.8397 -79.3631 270° West 404 465 27,200 763 Climbing Washington Center
Sun 08:49:48 AM 38.8361 -79.4775 268° West 404 465 27,700 500 Climbing Washington Center
Sun 08:50:48 AM 38.8344 -79.6478 269° West 424 488 28,200 595 Climbing Washington Center
Sun 08:51:49 AM 38.8292 -79.8022 268° West 430 495 28,900 764 Climbing Washington Center
Sun 08:52:38 AM 38.8244 -79.9347 267° West 431 496 29,600 927 Climbing Indianapolis Center
Sun 08:53:39 AM 38.8214 -80.0903 269° West 436 502 30,600 885 Climbing Indianapolis Center
Sun 08:54:40 AM 38.8158 -80.2428 267° West 429 494 31,400 885 Climbing Indianapolis Center
Sun 08:55:41 AM 38.8117 -80.3967 268° West 433 498 32,400 927 Climbing Indianapolis Center
Sun 08:56:43 AM 38.8081 -80.5469 268° West 423 487 33,300 780 Climbing Indianapolis Center
Sun 08:57:44 AM 38.8025 -80.6983 267° West 425 489 34,000 344 Climbing Indianapolis Center
Sun 08:58:45 AM 38.7981 -80.8542 268° West 434 499 34,000  Level Indianapolis Center
Sun 08:59:46 AM 38.7936 -81.0142 268° West 449 517 34,000  Level Indianapolis Center
Sun 09:00:48 AM 38.7878 -81.1725 267° West 447 514 34,000  Level Indianapolis Center
Sun 09:01:49 AM 38.7817 -81.3606 268° West 443 510 34,000  Level Indianapolis Center
Sun 09:02:50 AM 38.7750 -81.5131 267° West 442 509 34,000  Level Indianapolis Center
Sun 09:03:52 AM 38.7686 -81.6706 267° West 441 507 34,000  Level Indianapolis Center
Sun 09:04:53 AM 38.7633 -81.8222 267° West 445 512 34,000  Level Indianapolis Center
Sun 09:05:54 AM 38.7572 -81.9772 267° West 439 505 34,000  Level Indianapolis Center
Sun 09:06:56 AM 38.7511 -82.1347 267° West 443 510 34,000  Level Indianapolis Center
Sun 09:07:57 AM 38.7431 -82.3211 267° West 440 506 34,000  Level Indianapolis Center
Sun 09:08:58 AM 38.7372 -82.4781 267° West 441 507 34,000  Level Indianapolis Center
Sun 09:10:00 AM 38.7308 -82.6331 267° West 438 504 34,000  Level Indianapolis Center
Sun 09:11:01 AM 38.7250 -82.7900 267° West 439 505 34,000  Level Indianapolis Center
Sun 09:12:03 AM 38.7172 -82.9447 266° West 437 503 34,000  Level Indianapolis Center
Sun 09:13:04 AM 38.7106 -83.1000 267° West 437 503 34,000  Level Indianapolis Center
Sun 09:14:05 AM 38.7022 -83.2631 266° West 440 506 34,000  Level Indianapolis Center
Sun 09:15:07 AM 38.6953 -83.4194 267° West 436 502 34,000  Level Indianapolis Center
Sun 09:16:08 AM 38.6878 -83.5761 267° West 437 503 34,000  Level Indianapolis Center
Sun 09:17:10 AM 38.6803 -83.7331 267° West 437 503 34,000 780 Level Indianapolis Center
Sun 09:18:11 AM 38.6728 -83.8878 266° West 432 497 35,600 984 Climbing Indianapolis Center
Sun 09:19:12 AM 38.6644 -84.0339 266° West 414 476 36,000 195 Climbing Indianapolis Center
Sun 09:20:14 AM 38.6564 -84.1828 266° West 414 476 36,000  Level Indianapolis Center
Sun 09:21:15 AM 38.6506 -84.3367 267° West 427 491 36,000  Level Indianapolis Center
Sun 09:22:17 AM 38.6619 -84.5219 275° West 442 509 36,000  Level Indianapolis Center
Sun 09:23:18 AM 38.6700 -84.6578 274° West 443 510 36,000 -439 Level Indianapolis Center
Sun 09:24:20 AM 38.6778 -84.8158 274° West 446 513 35,100 -1,317 Descending Indianapolis Center
Sun 09:25:21 AM 38.6897 -85.0022 275° West 439 505 33,300 -1,122 Descending Indianapolis Center
Sun 09:26:23 AM 38.6978 -85.1536 274° West 430 495 32,800 -634 Descending Indianapolis Center
Sun 09:27:24 AM 38.7053 -85.3094 274° West 438 504 32,000 -393 Descending Indianapolis Center
Sun 09:28:25 AM 38.7139 -85.4706 274° West 452 520 32,000  Level Indianapolis Center
Sun 09:29:27 AM 38.7214 -85.6306 273° West 451 519 32,000  Level Indianapolis Center
Sun 09:30:28 AM 38.7283 -85.7861 273° West 441 507 32,000  Level Indianapolis Center
Sun 09:31:30 AM 38.7381 -85.9639 274° West 437 503 32,000  Level Indianapolis Center
Sun 09:32:31 AM 38.7447 -86.1219 273° West 443 510 32,000  Level Indianapolis Center
Sun 09:33:33 AM 38.7519 -86.2797 273° West 445 512 32,000  Level Indianapolis Center
Sun 09:34:34 AM 38.7581 -86.4386 273° West 447 514 32,000  Level Indianapolis Center
Sun 09:35:36 AM 38.7644 -86.5983 273° West 450 518 32,000  Level Indianapolis Center
Sun 09:36:37 AM 38.7708 -86.7564 273° West 448 516 32,000  Level Indianapolis Center
Sun 09:37:39 AM 38.7775 -86.9150 273° West 448 516 32,000  Level Indianapolis Center
Sun 09:38:40 AM 38.7833 -87.0736 273° West 448 516 32,000  Level Indianapolis Center
Sun 09:39:42 AM 38.7906 -87.2650 273° West 450 518 32,000  Level Indianapolis Center
Sun 09:40:43 AM 38.7964 -87.4261 273° West 455 524 32,000  Level Indianapolis Center
Sun 09:41:45 AM 38.8019 -87.5842 273° West 449 517 32,000  Level Indianapolis Center
Sun 09:42:47 AM 38.8058 -87.7431 272° West 446 513 32,000  Level Indianapolis Center
Sun 09:43:48 AM 38.8114 -87.8969 273° West 434 499 32,000  Level Indianapolis Center
Sun 09:44:50 AM 38.8153 -88.0503 272° West 431 496 32,000  Level Indianapolis Center
Sun 09:45:33 AM 38.8186 -88.1733 272° West 429 494 32,000  Level Kansas City Center
Sun 09:46:35 AM 38.8225 -88.3278 272° West 432 497 32,000  Level Kansas City Center
Sun 09:47:36 AM 38.8278 -88.4864 272° West 441 507 32,000  Level Kansas City Center
Sun 09:48:38 AM 38.8306 -88.6342 271° West 444 511 32,000  Level Kansas City Center
Sun 09:49:40 AM 38.8333 -88.7950 271° West 450 518 32,000  Level Kansas City Center
Sun 09:50:41 AM 38.8381 -88.9947 272° West 451 519 32,000  Level Kansas City Center
Sun 09:51:43 AM 38.8433 -89.1553 272° West 454 522 32,000  Level Kansas City Center
Sun 09:52:44 AM 38.8461 -89.3142 271° West 448 516 32,000  Level Kansas City Center
Sun 09:53:46 AM 38.8492 -89.4833 271° West 444 511 32,000  Level Kansas City Center
Sun 09:54:48 AM 38.8514 -89.6403 271° West 443 510 32,000  Level Kansas City Center
Sun 09:55:49 AM 38.8722 -89.7689 282° West 430 495 32,000  Level Kansas City Center
Sun 09:56:51 AM 38.9225 -89.9383 291° West 426 490 32,000  Level Kansas City Center
Sun 09:57:53 AM 38.9650 -90.0783 291° West 428 493 32,000  Level Kansas City Center
Sun 09:58:55 AM 39.0072 -90.2200 291° West 429 494 32,000  Level Kansas City Center
Sun 09:59:57 AM 39.0497 -90.3628 291° West 432 497 32,000  Level Kansas City Center
Sun 10:00:59 AM 39.0917 -90.5061 291° West 434 499 32,000  Level Kansas City Center
Sun 10:02:00 AM 39.1436 -90.6792 291° West 435 501 32,000  Level Kansas City Center
Sun 10:03:02 AM 39.1864 -90.8236 291° West 434 499 32,000  Level Kansas City Center
Sun 10:04:04 AM 39.2283 -90.9694 290° West 435 501 32,000  Level Kansas City Center
Sun 10:05:06 AM 39.2703 -91.1172 290° West 438 504 32,000  Level Kansas City Center
Sun 10:06:07 AM 39.3119 -91.2625 290° West 436 502 32,000  Level Kansas City Center
Sun 10:07:09 AM 39.3528 -91.4083 290° West 434 499 32,000  Level Kansas City Center
Sun 10:08:11 AM 39.3939 -91.5517 290° West 430 495 32,000  Level Kansas City Center
Sun 10:09:13 AM 39.4417 -91.7219 290° West 429 494 32,000  Level Kansas City Center
Sun 10:10:15 AM 39.4825 -91.8658 290° West 429 494 32,000  Level Kansas City Center
Sun 10:11:16 AM 39.5236 -92.0083 291° West 426 490 32,000  Level Kansas City Center
Sun 10:12:18 AM 39.5631 -92.1539 289° West 428 493 32,000  Level Kansas City Center
Sun 10:13:20 AM 39.6031 -92.2997 290° West 431 496 32,000 -823 Level Kansas City Center
Sun 10:14:22 AM 39.6517 -92.4747 290° West 432 497 30,300 -1,548 Descending Kansas City Center
Sun 10:15:24 AM 39.6531 -92.6289 271° West 433 498 28,800 -1,597 Descending Kansas City Center
Sun 10:16:26 AM 39.6497 -92.7811 268° West 426 490 27,000 -2,049 Descending Kansas City Center
Sun 10:17:27 AM 39.6481 -92.9331 269° West 423 487 24,600 -2,293 Descending Kansas City Center
Sun 10:18:29 AM 39.6456 -93.0789 269° West 415 478 22,300 -2,081 Descending Kansas City Center
Sun 10:19:31 AM 39.6444 -93.2200 269° West 400 460 20,300 -1,984 Descending Kansas City Center
Sun 10:20:33 AM 39.6400 -93.3775 268° West 373 429 18,200 -1,790 Descending Kansas City Center
Sun 10:21:35 AM 39.6369 -93.5072 268° West 367 422 16,600 -1,512 Descending Kansas City Center
Sun 10:22:36 AM 39.6350 -93.6308 269° West 352 405 15,100 -1,463 Descending Kansas City Center
Sun 10:23:38 AM 39.6319 -93.7511 268° West 348 400 13,600 -1,645 Descending Kansas City Center
Sun 10:24:40 AM 39.6253 -93.8903 266° West 347 399 11,700 -1,645 Descending Kansas City Center
Sun 10:25:42 AM 39.5711 -93.9886 234° Southwest 347 399 10,200 -871 Descending Kansas City Center
Sun 10:26:44 AM 39.5219 -94.0983 240° Southwest 319 367 9,900 -683 Descending Kansas City Center
Sun 10:27:45 AM 39.5081 -94.1906 259° West 282 325 8,800 -1,268 Descending Kansas City Center
Sun 10:28:47 AM 39.4931 -94.2831 258° West 243 280 7,300 -1,355 Descending Kansas City Center
Sun 10:29:49 AM 39.4833 -94.3597 261° West 230 265 6,000 -1,113 Descending Kansas City Center
Sun 10:30:51 AM 39.4700 -94.4469 259° West 224 258 5,000 -968 Descending Kansas City Center
Sun 10:31:53 AM 39.4508 -94.5172 251° West 219 252 4,000 -780 Descending Kansas City Center
Sun 10:32:54 AM 39.4314 -94.5847 250° West 214 246 3,400 -537 Descending Kansas City Center
Sun 10:33:56 AM 39.4100 -94.6544 248° West 197 227 2,900 -532 Descending Kansas City Center
Sun 10:34:58 AM 39.3853 -94.6906 228° Southwest 158 182 2,300 -629 Descending Kansas City Center
Sun 10:36:00 AM 39.3511 -94.7131 207° Southwest 129 148 1,600 -581 Descending Kansas City Center
Sun 10:37:02 AM 39.3142 -94.7253 194° South 127 146 1,100 -484 Descending Kansas City Center

Login

Don't have an account? Register now (free) for customized features, flight alerts, and more!